createdAt,value
2022-12-16T00:01:58.493Z,12.33
2022-12-16T00:04:26.550Z,12.00
2022-12-16T00:06:54.473Z,11.97
2022-12-16T00:09:23.991Z,12.43
2022-12-16T00:11:51.702Z,12.27
2022-12-16T00:14:19.582Z,12.53
2022-12-16T00:16:47.395Z,12.50
2022-12-16T00:19:15.378Z,12.27
2022-12-16T00:21:43.541Z,12.77
2022-12-16T00:24:11.299Z,12.30
2022-12-16T00:26:40.399Z,12.53
2022-12-16T00:29:11.004Z,12.40
2022-12-16T00:31:38.830Z,11.73
2022-12-16T00:34:06.730Z,12.90
2022-12-16T00:36:34.635Z,12.23
2022-12-16T00:39:02.825Z,12.80
2022-12-16T00:41:30.544Z,12.40
2022-12-16T00:43:59.711Z,13.30
2022-12-16T00:46:27.413Z,12.70
2022-12-16T00:48:55.258Z,13.43
2022-12-16T00:51:23.239Z,13.57
2022-12-16T00:53:52.597Z,12.67
2022-12-16T00:56:21.943Z,12.70
2022-12-16T00:58:50.522Z,13.07
2022-12-16T01:01:19.750Z,12.53
2022-12-16T01:03:47.641Z,12.43
2022-12-16T01:06:17.412Z,13.03
2022-12-16T01:08:48.602Z,12.40
2022-12-16T01:11:17.303Z,12.23
2022-12-16T01:13:47.941Z,12.07
2022-12-16T01:16:16.462Z,12.77
2022-12-16T01:18:45.702Z,12.90
2022-12-16T01:21:15.659Z,11.23
2022-12-16T01:23:43.765Z,11.23
2022-12-16T01:26:16.102Z,12.47
2022-12-16T01:28:43.866Z,12.70
2022-12-16T01:31:13.039Z,11.47
2022-12-16T01:33:40.917Z,11.97
2022-12-16T01:36:10.685Z,11.20
2022-12-16T01:38:39.583Z,11.40
2022-12-16T01:41:07.300Z,10.70
2022-12-16T01:43:38.792Z,11.80
2022-12-16T01:46:10.813Z,11.60
2022-12-16T01:48:45.718Z,11.97
2022-12-16T01:51:19.527Z,12.07
2022-12-16T01:53:49.157Z,11.63
2022-12-16T01:56:20.598Z,11.97
2022-12-16T01:58:50.007Z,13.13
2022-12-16T02:01:18.464Z,12.17
2022-12-16T02:03:46.319Z,11.13
2022-12-16T02:06:15.418Z,11.70
2022-12-16T02:08:43.219Z,11.10
2022-12-16T02:11:31.464Z,10.43
2022-12-16T02:14:18.581Z,11.43
2022-12-16T02:16:55.577Z,12.67
2022-12-16T02:19:58.224Z,12.13
2022-12-16T02:22:38.870Z,11.63
2022-12-16T02:25:43.431Z,12.53
2022-12-16T02:28:14.138Z,11.03
2022-12-16T02:31:09.522Z,12.13
2022-12-16T02:33:51.593Z,12.47
2022-12-16T02:36:30.288Z,11.10
2022-12-16T02:39:01.203Z,11.47
2022-12-16T02:41:38.722Z,12.27
2022-12-16T02:44:09.207Z,10.57
2022-12-16T02:46:43.058Z,11.33
2022-12-16T02:49:44.689Z,11.17
2022-12-16T02:52:13.486Z,11.00
2022-12-16T02:54:41.913Z,10.63
2022-12-16T02:57:24.440Z,10.83
2022-12-16T03:00:02.670Z,11.27
2022-12-16T03:02:39.317Z,11.53
2022-12-16T03:05:11.021Z,11.77
2022-12-16T03:07:41.413Z,12.70
2022-12-16T03:10:13.227Z,10.67
2022-12-16T03:12:43.293Z,10.93
2022-12-16T03:15:12.825Z,11.07
2022-12-16T03:17:43.686Z,12.20
2022-12-16T03:20:17.289Z,10.97
2022-12-16T03:22:49.193Z,11.30
2022-12-16T03:25:17.543Z,11.27
2022-12-16T03:27:53.117Z,10.53
2022-12-16T03:30:26.556Z,10.80
2022-12-16T03:33:01.051Z,10.67
2022-12-16T03:35:34.393Z,11.17
2022-12-16T03:38:04.483Z,11.30
2022-12-16T03:40:34.187Z,11.23
2022-12-16T03:43:03.641Z,10.97
2022-12-16T03:45:37.889Z,11.83
2022-12-16T03:48:09.382Z,10.57
2022-12-16T03:50:38.694Z,11.23
2022-12-16T03:53:07.375Z,10.57
2022-12-16T03:55:35.295Z,10.87
2022-12-16T03:58:02.968Z,11.23
2022-12-16T04:00:30.686Z,12.77
2022-12-16T04:02:58.647Z,11.33
2022-12-16T04:05:28.063Z,11.60
2022-12-16T04:08:00.250Z,10.73
2022-12-16T04:10:43.597Z,11.93
2022-12-16T04:13:30.072Z,9.93
2022-12-16T04:16:14.817Z,11.17
2022-12-16T04:19:00.266Z,12.17
2022-12-16T04:21:47.136Z,11.07
2022-12-16T04:24:24.071Z,11.23
2022-12-16T04:27:15.347Z,11.77
2022-12-16T04:29:57.730Z,11.43
2022-12-16T04:32:25.727Z,12.07
2022-12-16T04:34:52.877Z,11.33
2022-12-16T04:37:39.228Z,11.53
2022-12-16T04:40:25.755Z,10.97
2022-12-16T04:43:11.142Z,11.07
2022-12-16T04:45:57.702Z,11.67
2022-12-16T04:48:43.232Z,11.87
2022-12-16T04:51:28.377Z,12.67
2022-12-16T04:54:15.067Z,11.43
2022-12-16T04:57:00.352Z,11.90
2022-12-16T04:59:45.794Z,12.27
2022-12-16T05:02:31.324Z,12.10
2022-12-16T05:05:16.918Z,12.90
2022-12-16T05:08:02.131Z,11.53
2022-12-16T05:10:48.750Z,12.03
2022-12-16T05:13:34.541Z,12.97
2022-12-16T05:16:19.922Z,12.23
2022-12-16T05:19:05.186Z,12.03
2022-12-16T05:21:50.740Z,13.07
2022-12-16T05:24:35.983Z,11.53
2022-12-16T05:27:22.769Z,11.63
2022-12-16T05:30:08.324Z,12.60
2022-12-16T05:32:53.471Z,11.97
2022-12-16T05:35:41.009Z,11.57
2022-12-16T05:38:26.445Z,11.63
2022-12-16T05:41:11.890Z,11.77
2022-12-16T05:43:58.671Z,12.50
2022-12-16T05:46:43.960Z,13.00
2022-12-16T05:49:29.302Z,13.10
2022-12-16T05:52:16.231Z,15.37
2022-12-16T05:55:06.916Z,14.27
2022-12-16T05:57:52.258Z,12.73
2022-12-16T06:00:39.064Z,13.30
2022-12-16T06:03:24.419Z,11.23
2022-12-16T06:06:10.375Z,10.70
2022-12-16T06:08:55.763Z,10.57
2022-12-16T06:11:41.256Z,10.20
2022-12-16T06:14:26.767Z,10.77
2022-12-16T06:17:13.484Z,10.97
2022-12-16T06:19:58.966Z,12.43
2022-12-16T06:22:44.714Z,13.20
2022-12-16T06:25:30.020Z,13.43
2022-12-16T06:28:15.408Z,12.87
2022-12-16T06:31:00.707Z,12.90
2022-12-16T06:33:51.864Z,12.53
2022-12-16T06:36:39.765Z,12.03
2022-12-16T06:39:21.432Z,11.73
2022-12-16T06:42:06.814Z,11.73
2022-12-16T06:44:52.085Z,11.47
2022-12-16T06:47:37.465Z,10.70
2022-12-16T06:50:25.075Z,15.53
2022-12-16T06:53:10.376Z,11.27
2022-12-16T06:55:55.769Z,11.03
2022-12-16T06:58:41.163Z,10.50
2022-12-16T07:01:26.641Z,11.17
2022-12-16T07:04:11.882Z,11.43
2022-12-16T07:06:58.737Z,14.23
2022-12-16T07:09:44.568Z,14.83
2022-12-16T07:12:29.968Z,15.00
2022-12-16T07:15:17.513Z,13.47
2022-12-16T07:18:04.368Z,14.93
2022-12-16T07:20:49.922Z,13.93
2022-12-16T07:23:39.811Z,14.90
2022-12-16T07:26:25.112Z,13.80
2022-12-16T07:29:11.583Z,13.70
2022-12-16T07:31:57.032Z,13.80
2022-12-16T07:34:47.149Z,12.57
2022-12-16T07:37:35.020Z,12.43
2022-12-16T07:40:21.668Z,12.80
2022-12-16T07:43:06.875Z,13.13
2022-12-16T07:45:52.484Z,13.83
2022-12-16T07:48:37.753Z,13.43
2022-12-16T07:51:23.127Z,14.63
2022-12-16T07:54:08.594Z,14.20
2022-12-16T07:56:55.520Z,19.43
2022-12-16T07:59:40.865Z,16.03
2022-12-16T08:02:28.088Z,18.07
2022-12-16T08:05:13.315Z,17.43
2022-12-16T08:07:59.524Z,17.67
2022-12-16T08:10:45.374Z,17.17
2022-12-16T08:13:31.874Z,19.87
2022-12-16T08:16:17.696Z,17.00
2022-12-16T08:19:09.077Z,17.07
2022-12-16T08:21:56.083Z,16.70
2022-12-16T08:24:41.396Z,17.00
2022-12-16T08:27:26.464Z,15.87
2022-12-16T08:30:13.168Z,16.50
2022-12-16T08:33:01.273Z,15.60
2022-12-16T08:35:50.595Z,13.67
2022-12-16T08:38:36.572Z,14.37
2022-12-16T08:41:21.913Z,14.60
2022-12-16T08:44:07.499Z,14.13
2022-12-16T08:46:54.208Z,15.97
2022-12-16T08:49:39.601Z,15.17
2022-12-16T08:52:24.629Z,15.10
2022-12-16T08:55:09.961Z,15.00
2022-12-16T08:57:55.375Z,15.67
2022-12-16T09:00:41.283Z,17.97
2022-12-16T09:03:27.846Z,16.63
2022-12-16T09:06:17.256Z,14.27
2022-12-16T09:09:03.608Z,15.70
2022-12-16T09:11:48.813Z,16.00
2022-12-16T09:14:36.841Z,15.07
2022-12-16T09:17:21.899Z,16.63
2022-12-16T09:20:08.895Z,17.10
2022-12-16T09:22:54.323Z,15.20
2022-12-16T09:25:39.692Z,15.20
2022-12-16T09:28:25.302Z,14.37
2022-12-16T09:31:12.919Z,15.27
2022-12-16T09:33:58.029Z,16.23
2022-12-16T09:36:44.590Z,14.90
2022-12-16T09:39:30.066Z,15.03
2022-12-16T09:42:22.412Z,15.73
2022-12-16T09:45:25.110Z,15.10
2022-12-16T09:48:15.221Z,14.70
2022-12-16T09:51:03.250Z,18.33
2022-12-16T09:53:54.988Z,17.03
2022-12-16T09:56:48.256Z,17.47
2022-12-16T09:59:39.592Z,17.40
2022-12-16T10:02:30.613Z,17.50
2022-12-16T10:05:16.051Z,17.23
2022-12-16T10:08:06.937Z,15.57
2022-12-16T10:11:00.887Z,15.03
2022-12-16T10:13:55.109Z,17.23
2022-12-16T10:16:47.731Z,16.03
2022-12-16T10:19:49.343Z,16.33
2022-12-16T10:22:41.949Z,18.17
2022-12-16T10:25:34.423Z,18.17
2022-12-16T10:28:32.715Z,22.27
2022-12-16T10:31:19.056Z,21.93
2022-12-16T10:34:16.075Z,22.10
2022-12-16T10:37:08.884Z,20.20
2022-12-16T10:40:15.974Z,21.60
2022-12-16T10:43:08.780Z,21.37
2022-12-16T10:46:10.036Z,18.33
2022-12-16T10:48:56.510Z,20.77
2022-12-16T10:51:46.073Z,20.93
2022-12-16T10:54:46.671Z,19.57
2022-12-16T10:57:38.087Z,21.77
2022-12-16T11:00:29.626Z,20.13
2022-12-16T11:03:36.641Z,19.43
2022-12-16T11:06:23.112Z,18.63
2022-12-16T11:09:08.394Z,18.03
2022-12-16T11:11:53.878Z,17.33
2022-12-16T11:14:54.334Z,17.03
2022-12-16T11:17:48.762Z,17.93
2022-12-16T11:20:39.692Z,16.47
2022-12-16T11:23:33.718Z,17.07
2022-12-16T11:26:34.465Z,17.40
2022-12-16T11:29:29.381Z,17.13
2022-12-16T11:32:25.301Z,16.40
2022-12-16T11:35:13.818Z,17.57
2022-12-16T11:38:02.625Z,16.87
2022-12-16T11:40:49.645Z,16.30
2022-12-16T11:43:37.197Z,15.70
2022-12-16T11:46:28.505Z,15.37
2022-12-16T11:49:23.385Z,15.87
2022-12-16T11:52:35.293Z,15.93
2022-12-16T11:55:56.047Z,15.87
2022-12-16T11:58:39.921Z,15.70
2022-12-16T12:01:31.162Z,17.03
2022-12-16T12:04:16.681Z,16.33
2022-12-16T12:07:45.023Z,16.33
2022-12-16T12:10:49.250Z,16.17
2022-12-16T12:14:00.208Z,16.87
2022-12-16T12:16:52.221Z,16.37
2022-12-16T12:19:46.405Z,16.57
2022-12-16T12:22:44.605Z,16.57
2022-12-16T12:25:41.251Z,17.17
2022-12-16T12:28:38.089Z,17.07
2022-12-16T12:31:33.023Z,17.17
2022-12-16T12:34:24.143Z,16.33
2022-12-16T12:37:15.786Z,18.70
2022-12-16T12:40:05.308Z,17.10
2022-12-16T12:43:02.556Z,17.53
2022-12-16T12:46:10.211Z,18.63
2022-12-16T12:49:03.521Z,17.53
2022-12-16T12:51:55.834Z,19.23
2022-12-16T12:54:52.610Z,16.90
2022-12-16T12:57:41.309Z,18.07
2022-12-16T13:00:36.103Z,19.10
2022-12-16T13:03:27.053Z,18.03
2022-12-16T13:06:13.519Z,18.80
2022-12-16T13:09:15.039Z,18.50
2022-12-16T13:12:33.988Z,18.30
2022-12-16T13:15:23.656Z,18.53
2022-12-16T13:18:53.467Z,18.57
2022-12-16T13:22:11.669Z,18.80
2022-12-16T13:25:00.387Z,19.47
2022-12-16T13:27:46.993Z,18.00
2022-12-16T13:30:42.898Z,17.53
2022-12-16T13:33:43.701Z,17.77
2022-12-16T13:36:30.825Z,17.03
2022-12-16T13:39:36.435Z,18.97
2022-12-16T13:42:27.715Z,20.63
2022-12-16T13:45:15.868Z,19.63
2022-12-16T13:48:39.984Z,24.07
2022-12-16T13:51:25.409Z,18.47
2022-12-16T13:54:12.905Z,18.73
2022-12-16T13:57:02.984Z,18.53
2022-12-16T13:59:50.737Z,17.80
2022-12-16T14:02:49.135Z,17.80
2022-12-16T14:05:41.015Z,18.20
2022-12-16T14:08:35.094Z,18.00
2022-12-16T14:11:22.276Z,18.67
2022-12-16T14:14:18.213Z,17.77
2022-12-16T14:17:09.993Z,20.83
2022-12-16T14:20:12.307Z,18.37
2022-12-16T14:23:17.927Z,27.33
2022-12-16T14:26:15.984Z,19.23
2022-12-16T14:29:05.522Z,20.27
2022-12-16T14:31:57.024Z,19.77
2022-12-16T14:34:44.784Z,22.90
2022-12-16T14:37:34.043Z,19.00
2022-12-16T14:40:20.002Z,17.80
2022-12-16T14:43:12.951Z,18.83
2022-12-16T14:46:06.846Z,18.20
2022-12-16T14:48:56.679Z,18.83
2022-12-16T14:51:46.466Z,17.60
2022-12-16T14:54:42.525Z,18.83
2022-12-16T14:57:36.130Z,18.40
2022-12-16T15:00:31.101Z,17.50
2022-12-16T15:03:27.677Z,18.40
2022-12-16T15:06:16.082Z,18.83
2022-12-16T15:09:07.796Z,18.57
2022-12-16T15:11:54.496Z,17.77
2022-12-16T15:14:47.281Z,19.43
2022-12-16T15:17:41.345Z,18.60
2022-12-16T15:20:35.734Z,20.53
2022-12-16T15:23:22.895Z,19.37
2022-12-16T15:26:17.211Z,20.80
2022-12-16T15:29:02.995Z,21.37
2022-12-16T15:31:51.534Z,22.77
2022-12-16T15:34:50.059Z,18.73
2022-12-16T15:37:37.606Z,21.13
2022-12-16T15:40:38.325Z,19.70
2022-12-16T15:43:24.223Z,20.30
2022-12-16T15:46:09.808Z,20.53
2022-12-16T15:48:56.229Z,18.57
2022-12-16T15:51:48.764Z,19.87
2022-12-16T15:54:36.397Z,19.50
2022-12-16T15:57:44.254Z,21.27
2022-12-16T16:00:39.353Z,20.67
2022-12-16T16:03:36.147Z,21.47
2022-12-16T16:06:22.272Z,20.87
2022-12-16T16:09:10.818Z,21.83
2022-12-16T16:11:56.105Z,22.70
2022-12-16T16:14:54.259Z,22.43
2022-12-16T16:17:41.609Z,22.73
2022-12-16T16:20:32.778Z,24.17
2022-12-16T16:23:18.364Z,23.97
2022-12-16T16:26:04.315Z,22.00
2022-12-16T16:28:49.647Z,24.70
2022-12-16T16:31:36.600Z,20.43
2022-12-16T16:34:22.246Z,21.57
2022-12-16T16:37:11.569Z,26.37
2022-12-16T16:39:57.051Z,27.90
2022-12-16T16:42:43.126Z,24.73
2022-12-16T16:45:29.250Z,25.83
2022-12-16T16:48:24.970Z,24.00
2022-12-16T16:51:14.361Z,25.60
2022-12-16T16:54:00.054Z,27.67
2022-12-16T16:56:47.542Z,25.80
2022-12-16T16:59:47.234Z,23.90
2022-12-16T17:02:40.855Z,25.47
2022-12-16T17:05:25.246Z,24.53
2022-12-16T17:08:10.571Z,24.13
2022-12-16T17:10:56.098Z,27.60
2022-12-16T17:13:41.453Z,26.53
2022-12-16T17:16:28.558Z,28.17
2022-12-16T17:19:14.021Z,26.97
2022-12-16T17:22:00.695Z,27.30
2022-12-16T17:24:49.344Z,26.07
2022-12-16T17:27:39.428Z,27.70
2022-12-16T17:30:32.894Z,25.60
2022-12-16T17:33:18.130Z,26.33
2022-12-16T17:36:08.516Z,24.23
2022-12-16T17:38:58.226Z,23.77
2022-12-16T17:41:43.723Z,24.73
2022-12-16T17:44:29.187Z,24.67
2022-12-16T17:47:14.482Z,23.00
2022-12-16T17:49:59.979Z,25.23
2022-12-16T17:52:45.804Z,26.00
2022-12-16T17:55:35.227Z,24.70
2022-12-16T17:58:20.678Z,26.33
2022-12-16T18:01:06.147Z,25.47
2022-12-16T18:03:51.690Z,26.73
2022-12-16T18:06:37.508Z,24.90
2022-12-16T18:09:22.825Z,25.73
2022-12-16T18:12:09.158Z,25.00
2022-12-16T18:14:54.666Z,26.57
2022-12-16T18:17:40.032Z,26.27
2022-12-16T18:20:26.518Z,25.57
2022-12-16T18:23:12.185Z,27.60
2022-12-16T18:25:57.480Z,26.10
2022-12-16T18:28:46.492Z,29.27
2022-12-16T18:31:31.862Z,29.43
2022-12-16T18:34:17.243Z,25.83
2022-12-16T18:37:02.681Z,26.57
2022-12-16T18:39:48.108Z,25.77
2022-12-16T18:42:41.842Z,26.47
2022-12-16T18:45:28.854Z,36.60
2022-12-16T18:48:14.271Z,44.80
2022-12-16T18:50:59.635Z,39.53
2022-12-16T18:53:45.388Z,31.93
2022-12-16T18:56:30.505Z,30.43
2022-12-16T18:59:17.209Z,28.47
2022-12-16T19:02:04.178Z,26.97
2022-12-16T19:04:49.276Z,28.37
2022-12-16T19:07:37.005Z,25.93
2022-12-16T19:10:23.075Z,23.13
2022-12-16T19:13:08.517Z,21.07
2022-12-16T19:15:54.643Z,20.97
2022-12-16T19:18:41.357Z,19.83
2022-12-16T19:21:28.523Z,20.57
2022-12-16T19:24:14.083Z,19.50
2022-12-16T19:26:59.368Z,19.37
2022-12-16T19:29:44.652Z,19.60
2022-12-16T19:32:29.847Z,20.77
2022-12-16T19:35:16.789Z,20.87
2022-12-16T19:38:02.263Z,17.97
2022-12-16T19:40:47.543Z,20.27
2022-12-16T19:43:32.742Z,21.20
2022-12-16T19:46:18.389Z,20.00
2022-12-16T19:49:04.657Z,20.37
2022-12-16T19:51:51.806Z,20.67
2022-12-16T19:54:37.256Z,19.60
2022-12-16T19:57:22.570Z,18.57
2022-12-16T20:00:07.706Z,18.70
2022-12-16T20:02:52.451Z,19.60
2022-12-16T20:05:38.868Z,18.70
2022-12-16T20:08:25.480Z,18.37
2022-12-16T20:11:10.831Z,18.80
2022-12-16T20:13:56.290Z,18.67
2022-12-16T20:16:41.746Z,19.20
2022-12-16T20:19:27.286Z,18.43
2022-12-16T20:22:16.473Z,18.53
2022-12-16T20:25:03.027Z,18.90
2022-12-16T20:27:48.523Z,18.13
2022-12-16T20:30:34.663Z,18.90
2022-12-16T20:33:19.961Z,18.57
2022-12-16T20:36:13.982Z,19.23
2022-12-16T20:38:59.753Z,19.50
2022-12-16T20:41:46.564Z,18.57
2022-12-16T20:44:32.130Z,19.80
2022-12-16T20:47:17.711Z,20.43
2022-12-16T20:50:03.125Z,20.13
2022-12-16T20:52:48.521Z,19.47
2022-12-16T20:55:33.919Z,26.17
2022-12-16T20:58:20.333Z,27.03
2022-12-16T21:01:09.816Z,24.43
2022-12-16T21:03:56.371Z,25.40
2022-12-16T21:06:42.264Z,26.13
2022-12-16T21:09:27.912Z,27.57
2022-12-16T21:12:13.333Z,25.07
2022-12-16T21:14:59.995Z,26.40
2022-12-16T21:17:45.415Z,25.33
2022-12-16T21:20:30.838Z,26.37
2022-12-16T21:23:19.218Z,25.37
2022-12-16T21:26:05.247Z,24.77
2022-12-16T21:28:51.757Z,24.07
2022-12-16T21:31:38.320Z,24.63
2022-12-16T21:34:23.955Z,26.30
2022-12-16T21:37:09.338Z,27.00
2022-12-16T21:39:54.933Z,26.83
2022-12-16T21:42:44.020Z,26.80
2022-12-16T21:45:30.089Z,32.03
2022-12-16T21:48:16.790Z,36.27
2022-12-16T21:51:02.331Z,33.23
2022-12-16T21:53:48.029Z,36.00
2022-12-16T21:56:34.265Z,32.40
2022-12-16T21:59:19.817Z,32.80
2022-12-16T22:02:05.380Z,35.37
2022-12-16T22:04:52.113Z,30.63
2022-12-16T22:07:37.209Z,28.87
2022-12-16T22:10:23.065Z,29.83
2022-12-16T22:13:08.373Z,27.93
2022-12-16T22:15:53.598Z,27.17
2022-12-16T22:18:45.182Z,25.73
2022-12-16T22:21:32.084Z,28.27
2022-12-16T22:24:17.797Z,27.67
2022-12-16T22:27:11.866Z,24.30
2022-12-16T22:29:57.635Z,23.17
2022-12-16T22:32:43.396Z,21.07
2022-12-16T22:35:31.368Z,22.67
2022-12-16T22:38:18.479Z,23.57
2022-12-16T22:41:12.808Z,24.43
2022-12-16T22:43:57.971Z,23.73
2022-12-16T22:46:43.314Z,23.07
2022-12-16T22:49:28.847Z,23.47
2022-12-16T22:52:14.397Z,22.63
2022-12-16T22:55:01.296Z,24.07
2022-12-16T22:57:46.711Z,22.20
2022-12-16T23:00:34.295Z,22.90
2022-12-16T23:03:19.951Z,23.63
2022-12-16T23:06:05.525Z,21.80
2022-12-16T23:08:51.025Z,22.90
2022-12-16T23:11:42.510Z,22.93
2022-12-16T23:14:27.811Z,23.30
2022-12-16T23:17:13.288Z,21.53
2022-12-16T23:19:58.568Z,20.27
2022-12-16T23:22:43.977Z,20.23
2022-12-16T23:25:29.286Z,21.30
2022-12-16T23:28:15.696Z,21.17
2022-12-16T23:31:01.084Z,20.43
2022-12-16T23:33:46.369Z,21.73
2022-12-16T23:36:31.824Z,20.43
2022-12-16T23:39:17.244Z,22.10
2022-12-16T23:42:03.867Z,22.90
2022-12-16T23:44:56.229Z,21.90
2022-12-16T23:47:41.874Z,21.93
2022-12-16T23:50:23.788Z,21.50
2022-12-16T23:53:09.103Z,23.67
2022-12-16T23:55:55.026Z,22.67
2022-12-16T23:58:40.286Z,23.10
